createdAt,value
2022-08-16T00:01:21.796Z,21.83
2022-08-16T00:03:51.081Z,21.75
2022-08-16T00:06:17.663Z,21.78
2022-08-16T00:08:45.894Z,21.84
2022-08-16T00:11:15.201Z,21.73
2022-08-16T00:13:42.819Z,21.59
2022-08-16T00:17:00.656Z,21.48
2022-08-16T00:18:56.800Z,21.37
2022-08-16T00:21:24.863Z,21.36
2022-08-16T00:23:51.354Z,21.44
2022-08-16T00:26:36.200Z,21.43
2022-08-16T00:29:04.418Z,21.49
2022-08-16T00:31:58.581Z,21.46
2022-08-16T00:34:22.463Z,21.49
2022-08-16T00:37:08.883Z,21.52
2022-08-16T00:39:36.167Z,21.50
2022-08-16T00:42:03.269Z,21.46
2022-08-16T00:44:32.849Z,21.49
2022-08-16T00:47:06.505Z,21.42
2022-08-16T00:49:44.436Z,21.40
2022-08-16T00:52:29.962Z,21.44
2022-08-16T00:54:59.443Z,21.39
2022-08-16T00:57:27.636Z,21.44
2022-08-16T01:00:20.158Z,21.38
2022-08-16T01:02:51.022Z,21.33
2022-08-16T01:05:19.032Z,21.32
2022-08-16T01:07:53.344Z,21.33
2022-08-16T01:10:32.706Z,21.32
2022-08-16T01:13:12.375Z,21.30
2022-08-16T01:15:46.809Z,21.24
2022-08-16T01:18:40.720Z,21.29
2022-08-16T01:21:39.945Z,21.32
2022-08-16T01:24:53.377Z,21.25
2022-08-16T01:27:07.423Z,21.22
2022-08-16T01:29:57.750Z,21.15
2022-08-16T01:32:31.882Z,21.09
2022-08-16T01:35:01.154Z,21.03
2022-08-16T01:37:35.930Z,21.01
2022-08-16T01:40:07.269Z,21.00
2022-08-16T01:42:34.550Z,20.93
2022-08-16T01:45:01.247Z,20.83
2022-08-16T01:47:29.450Z,20.75
2022-08-16T01:50:42.630Z,20.66
2022-08-16T01:52:46.783Z,20.68
2022-08-16T01:55:25.175Z,20.65
2022-08-16T01:57:56.461Z,20.66
2022-08-16T02:00:28.973Z,20.66
2022-08-16T02:02:57.570Z,20.65
2022-08-16T02:05:24.083Z,20.41
2022-08-16T02:07:52.117Z,20.37
2022-08-16T02:10:20.895Z,20.35
2022-08-16T02:12:55.997Z,20.50
2022-08-16T02:15:28.568Z,20.53
2022-08-16T02:17:58.834Z,20.56
2022-08-16T02:20:30.087Z,20.58
2022-08-16T02:22:59.705Z,20.59
2022-08-16T02:25:51.967Z,20.62
2022-08-16T02:28:17.276Z,20.56
2022-08-16T02:30:50.588Z,20.53
2022-08-16T02:33:18.589Z,20.51
2022-08-16T02:35:54.527Z,20.43
2022-08-16T02:38:27.690Z,20.34
2022-08-16T02:40:55.108Z,20.29
2022-08-16T02:43:26.595Z,20.21
2022-08-16T02:45:55.507Z,20.12
2022-08-16T02:48:29.609Z,20.08
2022-08-16T02:51:06.416Z,20.05
2022-08-16T02:53:39.936Z,19.92
2022-08-16T02:56:09.860Z,19.94
2022-08-16T02:58:37.546Z,19.91
2022-08-16T03:01:07.098Z,19.87
2022-08-16T03:04:29.192Z,19.86
2022-08-16T03:06:41.606Z,19.86
2022-08-16T03:09:18.606Z,19.81
2022-08-16T03:11:50.225Z,19.75
2022-08-16T03:14:21.163Z,19.74
2022-08-16T03:16:59.651Z,19.78
2022-08-16T03:19:56.392Z,19.86
2022-08-16T03:22:27.708Z,19.82
2022-08-16T03:25:00.751Z,19.86
2022-08-16T03:27:31.164Z,19.88
2022-08-16T03:30:19.896Z,19.79
2022-08-16T03:32:51.498Z,19.77
2022-08-16T03:35:24.318Z,19.75
2022-08-16T03:38:03.872Z,19.73
2022-08-16T03:40:39.542Z,19.70
2022-08-16T03:43:20.303Z,19.68
2022-08-16T03:45:49.555Z,19.67
2022-08-16T03:48:39.687Z,19.64
2022-08-16T03:51:14.368Z,19.52
2022-08-16T03:54:00.745Z,19.54
2022-08-16T03:56:30.299Z,19.53
2022-08-16T03:58:57.766Z,19.50
2022-08-16T04:01:29.117Z,19.44
2022-08-16T04:03:56.333Z,19.42
2022-08-16T04:06:22.871Z,19.43
2022-08-16T04:08:49.720Z,19.44
2022-08-16T04:11:16.496Z,19.33
2022-08-16T04:13:58.928Z,19.34
2022-08-16T04:16:32.391Z,19.25
2022-08-16T04:19:18.368Z,19.27
2022-08-16T04:21:48.101Z,19.27
2022-08-16T04:24:21.773Z,19.09
2022-08-16T04:26:55.423Z,19.27
2022-08-16T04:29:24.934Z,19.32
2022-08-16T04:31:55.718Z,19.37
2022-08-16T04:34:28.223Z,19.38
2022-08-16T04:36:56.642Z,19.38
2022-08-16T04:39:24.282Z,19.39
2022-08-16T04:41:56.989Z,19.42
2022-08-16T04:44:33.101Z,19.46
2022-08-16T04:47:21.418Z,19.46
2022-08-16T04:49:52.463Z,19.41
2022-08-16T04:52:33.457Z,19.40
2022-08-16T04:55:04.780Z,19.46
2022-08-16T04:57:31.281Z,19.49
2022-08-16T04:59:57.792Z,19.56
2022-08-16T05:02:42.060Z,19.62
2022-08-16T05:05:17.899Z,19.69
2022-08-16T05:07:57.759Z,19.74
2022-08-16T05:10:25.663Z,19.81
2022-08-16T05:12:52.908Z,19.84
2022-08-16T05:15:19.969Z,19.98
2022-08-16T05:17:47.032Z,20.16
2022-08-16T05:20:39.626Z,20.35
2022-08-16T05:23:02.087Z,20.56
2022-08-16T05:25:32.554Z,20.70
2022-08-16T05:28:10.598Z,20.79
2022-08-16T05:30:41.648Z,20.93
2022-08-16T05:33:16.460Z,21.14
2022-08-16T05:35:55.471Z,21.39
2022-08-16T05:38:32.939Z,21.50
2022-08-16T05:41:09.384Z,21.76
2022-08-16T05:43:43.388Z,21.89
2022-08-16T05:46:29.760Z,22.08
2022-08-16T05:49:05.928Z,22.22
2022-08-16T05:51:40.069Z,22.39
2022-08-16T05:54:09.659Z,22.53
2022-08-16T05:56:38.155Z,22.59
2022-08-16T05:59:06.158Z,22.70
2022-08-16T06:01:38.122Z,22.71
2022-08-16T06:04:12.812Z,22.92
2022-08-16T06:06:56.047Z,23.17
2022-08-16T06:09:42.672Z,23.34
2022-08-16T06:12:12.247Z,23.29
2022-08-16T06:14:40.102Z,23.58
2022-08-16T06:17:07.575Z,23.71
2022-08-16T06:19:35.709Z,23.97
2022-08-16T06:22:10.880Z,23.62
2022-08-16T06:24:57.541Z,23.71
2022-08-16T06:27:24.686Z,23.68
2022-08-16T06:29:52.019Z,23.94
2022-08-16T06:32:27.573Z,24.09
2022-08-16T06:35:01.958Z,23.93
2022-08-16T06:37:37.273Z,24.10
2022-08-16T06:40:12.885Z,24.22
2022-08-16T06:42:47.740Z,24.47
2022-08-16T06:45:43.449Z,24.63
2022-08-16T06:48:13.476Z,24.97
2022-08-16T06:50:46.845Z,25.03
2022-08-16T06:53:15.787Z,25.03
2022-08-16T06:56:04.071Z,25.06
2022-08-16T06:58:41.880Z,25.22
2022-08-16T07:01:15.793Z,25.23
2022-08-16T07:03:55.739Z,25.42
2022-08-16T07:06:27.101Z,25.52
2022-08-16T07:08:58.036Z,25.60
2022-08-16T07:11:47.447Z,25.45
2022-08-16T07:14:26.365Z,25.33
2022-08-16T07:16:57.990Z,25.23
2022-08-16T07:20:02.050Z,25.55
2022-08-16T07:22:37.378Z,25.75
2022-08-16T07:24:58.597Z,25.62
2022-08-16T07:27:26.822Z,25.84
2022-08-16T07:29:55.615Z,25.76
2022-08-16T07:32:29.633Z,25.42
2022-08-16T07:34:58.889Z,25.41
2022-08-16T07:37:26.464Z,25.83
2022-08-16T07:40:11.192Z,25.91
2022-08-16T07:42:40.555Z,26.18
2022-08-16T07:45:10.441Z,26.17
2022-08-16T07:47:41.981Z,26.07
2022-08-16T07:50:10.264Z,26.17
2022-08-16T07:52:56.771Z,26.64
2022-08-16T07:55:26.729Z,26.55
2022-08-16T07:58:01.027Z,26.93
2022-08-16T08:00:32.597Z,27.24
2022-08-16T08:03:00.661Z,27.02
2022-08-16T08:05:35.730Z,27.23
2022-08-16T08:08:11.905Z,26.75
2022-08-16T08:10:51.582Z,26.97
2022-08-16T08:13:18.472Z,26.99
2022-08-16T08:15:52.568Z,26.60
2022-08-16T08:18:30.257Z,26.92
2022-08-16T08:20:59.421Z,27.27
2022-08-16T08:23:28.264Z,27.55
2022-08-16T08:25:55.902Z,27.88
2022-08-16T08:28:27.379Z,27.57
2022-08-16T08:31:02.503Z,27.53
2022-08-16T08:33:32.239Z,27.48
2022-08-16T08:36:02.638Z,27.39
2022-08-16T08:38:44.049Z,27.21
2022-08-16T08:41:12.074Z,27.53
2022-08-16T08:43:41.496Z,27.62
2022-08-16T08:46:12.455Z,27.95
2022-08-16T08:48:45.790Z,27.93
2022-08-16T08:51:27.722Z,27.79
2022-08-16T08:54:06.906Z,28.28
2022-08-16T08:56:37.219Z,28.77
2022-08-16T08:59:19.842Z,28.38
2022-08-16T09:01:56.177Z,28.51
2022-08-16T09:04:25.395Z,28.21
2022-08-16T09:06:54.022Z,28.52
2022-08-16T09:09:22.966Z,28.24
2022-08-16T09:12:05.867Z,28.52
2022-08-16T09:14:49.680Z,28.63
2022-08-16T09:17:38.304Z,28.39
2022-08-16T09:20:13.525Z,28.91
2022-08-16T09:22:41.316Z,29.12
2022-08-16T09:25:11.461Z,29.32
2022-08-16T09:27:46.652Z,29.55
2022-08-16T09:30:33.395Z,29.72
2022-08-16T09:33:01.093Z,29.66
2022-08-16T09:35:28.475Z,29.33
2022-08-16T09:38:00.423Z,29.20
2022-08-16T09:40:33.080Z,29.42
2022-08-16T09:43:21.114Z,29.37
2022-08-16T09:45:57.937Z,29.93
2022-08-16T09:48:36.833Z,29.71
2022-08-16T09:51:12.338Z,29.60
2022-08-16T09:53:38.854Z,29.61
2022-08-16T09:56:20.519Z,29.35
2022-08-16T09:59:05.048Z,29.65
2022-08-16T10:01:33.601Z,29.47
2022-08-16T10:04:04.179Z,30.05
2022-08-16T10:06:33.265Z,29.84
2022-08-16T10:09:11.376Z,29.93
2022-08-16T10:12:11.371Z,29.74
2022-08-16T10:14:46.218Z,30.45
2022-08-16T10:17:13.163Z,30.78
2022-08-16T10:19:39.621Z,30.46
2022-08-16T10:22:06.102Z,30.44
2022-08-16T10:24:33.413Z,30.67
2022-08-16T10:27:26.676Z,30.60
2022-08-16T10:29:59.910Z,30.43
2022-08-16T10:32:30.629Z,30.40
2022-08-16T10:34:58.581Z,30.07
2022-08-16T10:37:35.668Z,30.05
2022-08-16T10:40:28.576Z,30.02
2022-08-16T10:42:55.417Z,30.32
2022-08-16T10:45:21.862Z,30.30
2022-08-16T10:48:02.927Z,30.29
2022-08-16T10:50:32.309Z,30.22
2022-08-16T10:52:59.755Z,30.29
2022-08-16T10:55:44.502Z,30.57
2022-08-16T10:58:16.866Z,30.61
2022-08-16T11:00:46.274Z,30.98
2022-08-16T11:06:03.140Z,31.04
2022-08-16T11:08:35.916Z,31.28
2022-08-16T11:11:11.680Z,31.46
2022-08-16T11:14:11.493Z,31.48
2022-08-16T11:19:20.091Z,31.68
2022-08-16T11:24:42.214Z,31.93
2022-08-16T11:27:23.836Z,31.84
2022-08-16T11:29:55.150Z,32.31
2022-08-16T11:32:31.803Z,32.28
2022-08-16T11:35:10.599Z,32.05
2022-08-16T11:40:32.762Z,31.66
2022-08-16T11:43:00.054Z,31.76
2022-08-16T11:45:26.581Z,31.70
2022-08-16T11:47:53.125Z,31.65
2022-08-16T11:50:19.733Z,31.34
2022-08-16T11:52:46.686Z,30.92
2022-08-16T11:55:13.348Z,30.89
2022-08-16T11:57:40.992Z,31.04
2022-08-16T12:00:33.799Z,31.26
2022-08-16T12:02:59.949Z,31.40
2022-08-16T12:05:27.384Z,31.72
2022-08-16T12:07:55.831Z,31.59
2022-08-16T12:10:24.546Z,31.77
2022-08-16T12:12:54.937Z,31.95
2022-08-16T12:15:26.436Z,31.77
2022-08-16T12:17:55.636Z,31.75
2022-08-16T12:20:26.025Z,31.94
2022-08-16T12:22:57.201Z,32.03
2022-08-16T12:25:29.026Z,31.79
2022-08-16T12:27:57.450Z,31.70
2022-08-16T12:30:31.172Z,31.76
2022-08-16T12:33:03.220Z,31.54
2022-08-16T12:35:32.518Z,31.65
2022-08-16T12:38:01.291Z,31.78
2022-08-16T12:40:50.803Z,31.40
2022-08-16T12:43:23.596Z,31.10
2022-08-16T12:45:52.976Z,31.17
2022-08-16T12:48:42.325Z,31.18
2022-08-16T12:51:19.285Z,31.27
2022-08-16T12:53:47.317Z,31.36
2022-08-16T12:56:14.090Z,31.50
2022-08-16T12:58:47.388Z,31.57
2022-08-16T13:01:22.973Z,31.54
2022-08-16T13:03:59.111Z,31.64
2022-08-16T13:06:33.541Z,31.43
2022-08-16T13:09:02.351Z,31.50
2022-08-16T13:11:36.084Z,31.12
2022-08-16T13:14:05.270Z,31.04
2022-08-16T13:16:31.977Z,31.11
2022-08-16T13:19:00.712Z,31.04
2022-08-16T13:21:27.149Z,31.31
2022-08-16T13:23:55.551Z,31.41
2022-08-16T13:26:23.538Z,31.52
2022-08-16T13:28:50.065Z,31.36
2022-08-16T13:31:16.839Z,31.72
2022-08-16T13:33:43.682Z,31.68
2022-08-16T13:36:21.248Z,31.85
2022-08-16T13:38:59.532Z,31.91
2022-08-16T13:41:29.968Z,32.20
2022-08-16T13:43:59.369Z,31.82
2022-08-16T13:46:26.490Z,31.61
2022-08-16T13:48:53.015Z,31.78
2022-08-16T13:51:20.549Z,31.56
2022-08-16T13:53:49.573Z,31.11
2022-08-16T13:56:35.916Z,31.15
2022-08-16T13:59:19.530Z,31.33
2022-08-16T14:01:55.284Z,31.49
2022-08-16T14:04:26.677Z,31.71
2022-08-16T14:06:54.107Z,32.03
2022-08-16T14:09:21.332Z,32.15
2022-08-16T14:11:47.787Z,32.18
2022-08-16T14:14:19.858Z,32.32
2022-08-16T14:16:55.080Z,32.53
2022-08-16T14:19:22.423Z,32.71
2022-08-16T14:21:56.437Z,32.92
2022-08-16T14:24:30.662Z,33.06
2022-08-16T14:26:57.737Z,32.54
2022-08-16T14:29:24.216Z,32.41
2022-08-16T14:31:58.840Z,32.25
2022-08-16T14:34:25.529Z,31.89
2022-08-16T14:36:53.076Z,31.92
2022-08-16T14:39:21.908Z,32.09
2022-08-16T14:41:48.518Z,32.07
2022-08-16T14:44:19.828Z,32.31
2022-08-16T14:46:46.672Z,31.99
2022-08-16T14:49:13.147Z,32.21
2022-08-16T14:51:40.586Z,31.85
2022-08-16T14:54:11.406Z,31.82
2022-08-16T14:56:42.520Z,31.99
2022-08-16T14:59:09.644Z,31.90
2022-08-16T15:01:59.374Z,31.99
2022-08-16T15:04:33.267Z,32.36
2022-08-16T15:07:11.244Z,32.52
2022-08-16T15:10:00.921Z,32.58
2022-08-16T15:12:33.378Z,32.78
2022-08-16T15:15:04.390Z,32.73
2022-08-16T15:17:39.474Z,32.29
2022-08-16T15:20:08.578Z,32.07
2022-08-16T15:22:38.962Z,32.36
2022-08-16T15:25:09.639Z,32.47
2022-08-16T15:27:41.863Z,32.24
2022-08-16T15:30:57.083Z,32.44
2022-08-16T15:33:13.556Z,32.41
2022-08-16T15:35:40.222Z,32.44
2022-08-16T15:38:09.064Z,32.48
2022-08-16T15:40:37.104Z,32.63
2022-08-16T15:43:23.490Z,32.43
2022-08-16T15:46:35.260Z,32.39
2022-08-16T15:49:05.382Z,32.15
2022-08-16T15:51:33.464Z,32.27
2022-08-16T15:54:21.213Z,32.30
2022-08-16T15:56:51.388Z,32.25
2022-08-16T15:59:19.940Z,32.15
2022-08-16T16:01:46.841Z,32.33
2022-08-16T16:04:14.938Z,32.47
2022-08-16T16:06:49.412Z,32.49
2022-08-16T16:09:36.685Z,32.34
2022-08-16T16:12:16.368Z,32.24
2022-08-16T16:14:51.592Z,32.31
2022-08-16T16:17:18.177Z,32.27
2022-08-16T16:19:44.590Z,32.34
2022-08-16T16:22:16.348Z,32.22
2022-08-16T16:24:46.962Z,31.98
2022-08-16T16:27:13.971Z,31.85
2022-08-16T16:29:42.654Z,31.97
2022-08-16T16:32:12.831Z,31.93
2022-08-16T16:34:43.109Z,31.85
2022-08-16T16:37:10.118Z,31.85
2022-08-16T16:39:37.035Z,31.95
2022-08-16T16:42:05.128Z,31.70
2022-08-16T16:44:33.613Z,31.72
2022-08-16T16:47:03.409Z,31.77
2022-08-16T16:49:29.960Z,31.78
2022-08-16T16:52:06.514Z,31.82
2022-08-16T16:54:35.600Z,31.77
2022-08-16T16:57:02.626Z,31.88
2022-08-16T16:59:29.219Z,31.80
2022-08-16T17:02:38.835Z,31.67
2022-08-16T17:04:45.680Z,31.68
2022-08-16T17:07:14.280Z,31.74
2022-08-16T17:09:41.379Z,31.78
2022-08-16T17:12:10.125Z,31.76
2022-08-16T17:14:42.845Z,31.65
2022-08-16T17:17:09.891Z,31.64
2022-08-16T17:19:40.971Z,31.56
2022-08-16T17:22:15.168Z,31.54
2022-08-16T17:24:44.781Z,31.50
2022-08-16T17:27:12.091Z,31.44
2022-08-16T17:29:47.438Z,31.35
2022-08-16T17:32:34.490Z,31.25
2022-08-16T17:35:18.486Z,31.10
2022-08-16T17:37:54.318Z,30.91
2022-08-16T17:40:41.003Z,30.76
2022-08-16T17:43:13.373Z,30.58
2022-08-16T17:45:42.235Z,30.51
2022-08-16T17:48:08.983Z,30.37
2022-08-16T17:50:35.968Z,30.29
2022-08-16T17:53:02.466Z,30.14
2022-08-16T17:55:32.414Z,30.05
2022-08-16T17:57:59.443Z,29.92
2022-08-16T18:00:27.376Z,29.79
2022-08-16T18:02:57.987Z,29.64
2022-08-16T18:05:27.300Z,29.46
2022-08-16T18:07:54.271Z,29.37
2022-08-16T18:10:33.519Z,29.21
2022-08-16T18:13:03.734Z,29.10
2022-08-16T18:15:30.922Z,28.96
2022-08-16T18:17:57.370Z,28.90
2022-08-16T18:20:43.301Z,28.76
2022-08-16T18:23:16.070Z,28.61
2022-08-16T18:25:48.769Z,28.51
2022-08-16T18:28:15.810Z,28.35
2022-08-16T18:30:45.793Z,28.26
2022-08-16T18:33:17.161Z,28.11
2022-08-16T18:35:44.696Z,28.09
2022-08-16T18:38:11.236Z,27.96
2022-08-16T18:40:38.798Z,27.88
2022-08-16T18:43:09.005Z,27.67
2022-08-16T18:45:38.178Z,27.50
2022-08-16T18:48:06.025Z,27.37
2022-08-16T18:50:59.394Z,27.35
2022-08-16T18:53:20.499Z,27.22
2022-08-16T18:55:48.481Z,27.11
2022-08-16T18:58:15.934Z,26.99
2022-08-16T19:00:57.080Z,26.87
2022-08-16T19:03:30.272Z,26.78
2022-08-16T19:06:02.295Z,26.67
2022-08-16T19:08:30.059Z,26.51
2022-08-16T19:10:56.583Z,26.43
2022-08-16T19:13:26.322Z,26.36
2022-08-16T19:15:56.983Z,26.25
2022-08-16T19:18:23.848Z,25.99
2022-08-16T19:20:51.408Z,25.96
2022-08-16T19:23:21.280Z,25.92
2022-08-16T19:25:53.076Z,25.91
2022-08-16T19:28:51.735Z,25.89
2022-08-16T19:31:14.415Z,25.71
2022-08-16T19:33:47.489Z,25.57
2022-08-16T19:36:30.619Z,25.45
2022-08-16T19:38:58.654Z,25.35
2022-08-16T19:41:31.533Z,25.35
2022-08-16T19:43:57.972Z,25.30
2022-08-16T19:46:24.404Z,25.27
2022-08-16T19:48:50.808Z,25.23
2022-08-16T19:51:17.244Z,25.23
2022-08-16T19:53:43.706Z,25.19
2022-08-16T19:56:10.146Z,25.09
2022-08-16T19:58:36.800Z,24.99
2022-08-16T20:01:03.304Z,24.85
2022-08-16T20:03:30.573Z,24.77
2022-08-16T20:05:57.046Z,24.70
2022-08-16T20:08:23.537Z,24.73
2022-08-16T20:10:50.492Z,24.66
2022-08-16T20:13:22.680Z,24.58
2022-08-16T20:15:50.051Z,24.50
2022-08-16T20:18:24.884Z,24.39
2022-08-16T20:20:52.304Z,24.32
2022-08-16T20:23:24.916Z,24.30
2022-08-16T20:25:55.506Z,24.27
2022-08-16T20:28:39.386Z,24.19
2022-08-16T20:31:10.083Z,24.09
2022-08-16T20:33:36.596Z,24.01
2022-08-16T20:36:03.935Z,23.93
2022-08-16T20:38:31.089Z,23.92
2022-08-16T20:40:57.534Z,23.90
2022-08-16T20:43:23.976Z,23.85
2022-08-16T20:45:50.425Z,23.84
2022-08-16T20:48:16.911Z,23.80
2022-08-16T20:50:44.988Z,23.70
2022-08-16T20:53:11.494Z,23.60
2022-08-16T20:55:39.982Z,23.56
2022-08-16T20:58:06.444Z,23.49
2022-08-16T21:00:33.609Z,23.41
2022-08-16T21:03:01.175Z,23.41
2022-08-16T21:05:30.978Z,23.43
2022-08-16T21:07:58.038Z,23.40
2022-08-16T21:10:24.471Z,23.32
2022-08-16T21:12:59.384Z,23.26
2022-08-16T21:15:31.040Z,23.24
2022-08-16T21:17:58.013Z,23.18
2022-08-16T21:20:27.928Z,23.05
2022-08-16T21:22:57.117Z,22.96
2022-08-16T21:25:24.567Z,22.90
2022-08-16T21:28:40.239Z,22.83
2022-08-16T21:30:38.840Z,22.80
2022-08-16T21:33:08.436Z,22.73
2022-08-16T21:35:35.795Z,22.73
2022-08-16T21:38:28.333Z,22.67
2022-08-16T21:40:49.397Z,22.66
2022-08-16T21:43:20.954Z,22.63
2022-08-16T21:45:47.710Z,22.66
2022-08-16T21:48:14.366Z,22.56
2022-08-16T21:50:42.769Z,22.54
2022-08-16T21:53:17.975Z,22.48
2022-08-16T21:55:47.371Z,22.45
2022-08-16T21:58:15.027Z,22.46
2022-08-16T22:00:42.011Z,22.49
2022-08-16T22:03:11.422Z,22.43
2022-08-16T22:05:40.700Z,22.38
2022-08-16T22:08:07.619Z,22.36
2022-08-16T22:11:04.749Z,22.34
2022-08-16T22:13:26.366Z,22.30
2022-08-16T22:15:53.885Z,22.33
2022-08-16T22:18:21.354Z,22.28
2022-08-16T22:20:48.934Z,22.28
2022-08-16T22:23:18.984Z,22.23
2022-08-16T22:25:46.992Z,22.22
2022-08-16T22:28:14.848Z,22.17
2022-08-16T22:30:41.877Z,22.14
2022-08-16T22:33:14.828Z,22.07
2022-08-16T22:35:51.090Z,22.00
2022-08-16T22:38:53.676Z,21.89
2022-08-16T22:41:05.730Z,21.82
2022-08-16T22:43:32.739Z,21.83
2022-08-16T22:45:59.481Z,21.86
2022-08-16T22:48:26.118Z,21.86
2022-08-16T22:50:52.903Z,21.82
2022-08-16T22:53:19.458Z,21.79
2022-08-16T22:55:46.358Z,21.77
2022-08-16T22:58:13.813Z,21.71
2022-08-16T23:00:41.329Z,21.67
2022-08-16T23:03:16.557Z,21.64
2022-08-16T23:05:52.461Z,21.57
2022-08-16T23:08:38.054Z,21.50
2022-08-16T23:11:07.922Z,21.41
2022-08-16T23:13:34.388Z,21.41
2022-08-16T23:16:11.487Z,21.39
2022-08-16T23:18:39.193Z,21.42
2022-08-16T23:21:09.256Z,21.42
2022-08-16T23:23:37.424Z,21.39
2022-08-16T23:26:43.774Z,21.32
2022-08-16T23:28:51.382Z,21.25
2022-08-16T23:31:17.976Z,21.22
2022-08-16T23:33:44.764Z,21.23
2022-08-16T23:36:11.403Z,21.26
2022-08-16T23:38:39.511Z,21.24
2022-08-16T23:41:11.574Z,21.20
2022-08-16T23:43:43.428Z,21.13
2022-08-16T23:46:16.203Z,21.07
2022-08-16T23:49:57.857Z,21.02
2022-08-16T23:51:30.506Z,20.98
2022-08-16T23:53:56.984Z,20.85
2022-08-16T23:56:23.435Z,20.85
2022-08-16T23:58:53.684Z,20.89
